sensor_id;sensor_type;location;lat;lon;timestamp;temperature;humidity
30150;DHT22;16962;48.646;9.026;2023-12-22T00:01:23;6.30;99.90
30150;DHT22;16962;48.646;9.026;2023-12-22T00:04:14;6.30;99.90
30150;DHT22;16962;48.646;9.026;2023-12-22T00:07:01;6.30;99.90
30150;DHT22;16962;48.646;9.026;2023-12-22T00:09:49;6.30;99.90
30150;DHT22;16962;48.646;9.026;2023-12-22T00:12:40;6.20;99.90
30150;DHT22;16962;48.646;9.026;2023-12-22T00:15:28;6.20;99.90
30150;DHT22;16962;48.646;9.026;2023-12-22T00:18:16;6.20;99.90
30150;DHT22;16962;48.646;9.026;2023-12-22T00:21:03;6.20;99.90
30150;DHT22;16962;48.646;9.026;2023-12-22T00:23:51;6.20;99.90
30150;DHT22;16962;48.646;9.026;2023-12-22T00:27:03;6.20;99.90
30150;DHT22;16962;48.646;9.026;2023-12-22T00:29:50;6.20;99.90
30150;DHT22;16962;48.646;9.026;2023-12-22T00:32:37;6.30;99.90
30150;DHT22;16962;48.646;9.026;2023-12-22T00:35:34;6.30;99.90
30150;DHT22;16962;48.646;9.026;2023-12-22T00:38:46;6.30;99.90
30150;DHT22;16962;48.646;9.026;2023-12-22T00:41:34;6.30;99.90
30150;DHT22;16962;48.646;9.026;2023-12-22T00:44:21;6.20;99.90
30150;DHT22;16962;48.646;9.026;2023-12-22T00:47:09;6.30;99.90
30150;DHT22;16962;48.646;9.026;2023-12-22T00:49:56;6.30;99.90
30150;DHT22;16962;48.646;9.026;2023-12-22T00:52:44;6.20;99.90
30150;DHT22;16962;48.646;9.026;2023-12-22T00:55:33;6.30;99.90
30150;DHT22;16962;48.646;9.026;2023-12-22T00:58:22;6.40;99.90
30150;DHT22;16962;48.646;9.026;2023-12-22T01:01:11;6.30;99.90
30150;DHT22;16962;48.646;9.026;2023-12-22T01:03:59;6.30;99.90
30150;DHT22;16962;48.646;9.026;2023-12-22T01:06:46;6.30;99.90
30150;DHT22;16962;48.646;9.026;2023-12-22T01:09:37;6.40;99.90
30150;DHT22;16962;48.646;9.026;2023-12-22T01:12:27;6.30;99.90
30150;DHT22;16962;48.646;9.026;2023-12-22T01:15:14;6.30;99.90
30150;DHT22;16962;48.646;9.026;2023-12-22T01:18:06;6.20;99.90
30150;DHT22;16962;48.646;9.026;2023-12-22T01:20:53;6.20;99.90
30150;DHT22;16962;48.646;9.026;2023-12-22T01:23:44;6.20;99.90
30150;DHT22;16962;48.646;9.026;2023-12-22T01:26:34;6.20;99.90
30150;DHT22;16962;48.646;9.026;2023-12-22T01:29:21;6.30;99.90
30150;DHT22;16962;48.646;9.026;2023-12-22T01:32:11;6.30;99.90
30150;DHT22;16962;48.646;9.026;2023-12-22T01:34:59;6.30;99.90
30150;DHT22;16962;48.646;9.026;2023-12-22T01:37:50;6.30;99.90
30150;DHT22;16962;48.646;9.026;2023-12-22T01:40:40;6.30;99.90
30150;DHT22;16962;48.646;9.026;2023-12-22T01:43:27;6.20;99.90
30150;DHT22;16962;48.646;9.026;2023-12-22T01:46:15;6.20;99.90
30150;DHT22;16962;48.646;9.026;2023-12-22T01:49:02;6.10;99.90
30150;DHT22;16962;48.646;9.026;2023-12-22T01:51:50;6.10;99.90
30150;DHT22;16962;48.646;9.026;2023-12-22T01:54:37;6.00;99.90
30150;DHT22;16962;48.646;9.026;2023-12-22T01:57:24;6.10;99.90
30150;DHT22;16962;48.646;9.026;2023-12-22T02:00:12;6.10;99.90
30150;DHT22;16962;48.646;9.026;2023-12-22T02:03:00;6.00;99.90
30150;DHT22;16962;48.646;9.026;2023-12-22T02:05:47;6.10;99.90
30150;DHT22;16962;48.646;9.026;2023-12-22T02:08:36;6.10;99.90
30150;DHT22;16962;48.646;9.026;2023-12-22T02:11:24;6.10;99.90
30150;DHT22;16962;48.646;9.026;2023-12-22T02:14:11;6.10;99.90
30150;DHT22;16962;48.646;9.026;2023-12-22T02:17:19;6.10;99.90
30150;DHT22;16962;48.646;9.026;2023-12-22T02:20:10;6.20;99.90
30150;DHT22;16962;48.646;9.026;2023-12-22T02:22:58;6.20;99.90
30150;DHT22;16962;48.646;9.026;2023-12-22T02:25:45;6.20;99.90
30150;DHT22;16962;48.646;9.026;2023-12-22T02:28:35;6.20;99.90
30150;DHT22;16962;48.646;9.026;2023-12-22T02:31:36;6.10;99.90
30150;DHT22;16962;48.646;9.026;2023-12-22T02:34:25;6.10;99.90
30150;DHT22;16962;48.646;9.026;2023-12-22T02:37:13;6.10;99.90
30150;DHT22;16962;48.646;9.026;2023-12-22T02:40:03;6.20;99.90
30150;DHT22;16962;48.646;9.026;2023-12-22T02:42:53;6.20;99.90
30150;DHT22;16962;48.646;9.026;2023-12-22T02:45:40;6.30;99.90
30150;DHT22;16962;48.646;9.026;2023-12-22T02:48:28;6.30;99.90
30150;DHT22;16962;48.646;9.026;2023-12-22T02:51:16;6.30;99.90
30150;DHT22;16962;48.646;9.026;2023-12-22T02:54:03;6.40;99.90
30150;DHT22;16962;48.646;9.026;2023-12-22T02:56:52;6.50;99.90
30150;DHT22;16962;48.646;9.026;2023-12-22T02:59:42;6.40;99.90
30150;DHT22;16962;48.646;9.026;2023-12-22T03:02:32;6.40;99.90
30150;DHT22;16962;48.646;9.026;2023-12-22T03:05:19;6.50;99.90
30150;DHT22;16962;48.646;9.026;2023-12-22T03:08:09;6.50;99.90
30150;DHT22;16962;48.646;9.026;2023-12-22T03:10:56;6.50;99.90
30150;DHT22;16962;48.646;9.026;2023-12-22T03:13:46;6.40;99.90
30150;DHT22;16962;48.646;9.026;2023-12-22T03:16:41;6.40;99.90
30150;DHT22;16962;48.646;9.026;2023-12-22T03:19:29;6.40;99.90
30150;DHT22;16962;48.646;9.026;2023-12-22T03:22:16;6.50;99.90
30150;DHT22;16962;48.646;9.026;2023-12-22T03:25:06;6.40;99.90
30150;DHT22;16962;48.646;9.026;2023-12-22T03:27:56;6.40;99.90
30150;DHT22;16962;48.646;9.026;2023-12-22T03:30:43;6.40;99.90
30150;DHT22;16962;48.646;9.026;2023-12-22T03:33:30;6.40;99.90
30150;DHT22;16962;48.646;9.026;2023-12-22T03:36:20;6.40;99.90
30150;DHT22;16962;48.646;9.026;2023-12-22T03:39:10;6.50;99.90
30150;DHT22;16962;48.646;9.026;2023-12-22T03:41:57;6.50;99.90
30150;DHT22;16962;48.646;9.026;2023-12-22T03:44:46;6.50;99.90
30150;DHT22;16962;48.646;9.026;2023-12-22T03:47:35;6.50;99.90
30150;DHT22;16962;48.646;9.026;2023-12-22T03:50:22;6.50;99.90
30150;DHT22;16962;48.646;9.026;2023-12-22T03:53:09;6.50;99.90
30150;DHT22;16962;48.646;9.026;2023-12-22T03:55:59;6.50;99.90
30150;DHT22;16962;48.646;9.026;2023-12-22T03:58:46;6.40;99.90
30150;DHT22;16962;48.646;9.026;2023-12-22T04:01:35;6.40;99.90
30150;DHT22;16962;48.646;9.026;2023-12-22T04:04:23;6.40;99.90
30150;DHT22;16962;48.646;9.026;2023-12-22T04:07:10;6.30;99.90
30150;DHT22;16962;48.646;9.026;2023-12-22T04:09:57;6.40;99.90
30150;DHT22;16962;48.646;9.026;2023-12-22T04:12:45;6.40;99.90
30150;DHT22;16962;48.646;9.026;2023-12-22T04:15:32;6.40;99.90
30150;DHT22;16962;48.646;9.026;2023-12-22T04:18:19;6.50;99.90
30150;DHT22;16962;48.646;9.026;2023-12-22T04:21:06;6.50;99.90
30150;DHT22;16962;48.646;9.026;2023-12-22T04:23:55;6.50;99.90
30150;DHT22;16962;48.646;9.026;2023-12-22T04:26:43;6.40;99.90
30150;DHT22;16962;48.646;9.026;2023-12-22T04:29:30;6.40;99.90
30150;DHT22;16962;48.646;9.026;2023-12-22T04:32:18;6.30;99.90
30150;DHT22;16962;48.646;9.026;2023-12-22T04:35:05;6.20;99.90
30150;DHT22;16962;48.646;9.026;2023-12-22T04:37:52;6.00;99.90
30150;DHT22;16962;48.646;9.026;2023-12-22T04:40:40;5.90;99.90
30150;DHT22;16962;48.646;9.026;2023-12-22T04:43:28;5.80;99.90
30150;DHT22;16962;48.646;9.026;2023-12-22T04:46:17;5.60;99.90
30150;DHT22;16962;48.646;9.026;2023-12-22T04:49:06;5.50;99.90
30150;DHT22;16962;48.646;9.026;2023-12-22T04:51:54;5.50;99.90
30150;DHT22;16962;48.646;9.026;2023-12-22T04:54:42;5.60;99.90
30150;DHT22;16962;48.646;9.026;2023-12-22T04:57:36;5.60;99.90
30150;DHT22;16962;48.646;9.026;2023-12-22T05:00:25;5.60;99.90
30150;DHT22;16962;48.646;9.026;2023-12-22T05:03:13;5.50;99.90
30150;DHT22;16962;48.646;9.026;2023-12-22T05:06:03;5.50;99.90
30150;DHT22;16962;48.646;9.026;2023-12-22T05:08:53;5.50;99.90
30150;DHT22;16962;48.646;9.026;2023-12-22T05:11:48;5.50;99.90
30150;DHT22;16962;48.646;9.026;2023-12-22T05:14:35;5.60;99.90
30150;DHT22;16962;48.646;9.026;2023-12-22T05:17:25;5.60;99.90
30150;DHT22;16962;48.646;9.026;2023-12-22T05:20:12;5.70;99.90
30150;DHT22;16962;48.646;9.026;2023-12-22T05:22:59;5.80;99.90
30150;DHT22;16962;48.646;9.026;2023-12-22T05:25:47;5.70;99.90
30150;DHT22;16962;48.646;9.026;2023-12-22T05:28:34;5.90;99.90
30150;DHT22;16962;48.646;9.026;2023-12-22T05:31:23;5.90;99.90
30150;DHT22;16962;48.646;9.026;2023-12-22T05:34:15;5.90;99.90
30150;DHT22;16962;48.646;9.026;2023-12-22T05:37:02;5.90;99.90
30150;DHT22;16962;48.646;9.026;2023-12-22T05:39:52;6.00;99.90
30150;DHT22;16962;48.646;9.026;2023-12-22T05:42:40;6.00;99.90
30150;DHT22;16962;48.646;9.026;2023-12-22T05:45:28;6.10;99.90
30150;DHT22;16962;48.646;9.026;2023-12-22T05:48:15;6.10;99.90
30150;DHT22;16962;48.646;9.026;2023-12-22T05:51:03;6.20;99.90
30150;DHT22;16962;48.646;9.026;2023-12-22T05:53:54;6.30;99.90
30150;DHT22;16962;48.646;9.026;2023-12-22T05:56:48;6.30;99.90
30150;DHT22;16962;48.646;9.026;2023-12-22T05:59:41;6.30;99.90
30150;DHT22;16962;48.646;9.026;2023-12-22T06:02:31;6.20;99.90
30150;DHT22;16962;48.646;9.026;2023-12-22T06:05:18;6.10;99.90
30150;DHT22;16962;48.646;9.026;2023-12-22T06:08:07;5.90;99.90
30150;DHT22;16962;48.646;9.026;2023-12-22T06:10:54;5.70;99.90
30150;DHT22;16962;48.646;9.026;2023-12-22T06:13:42;5.60;99.90
30150;DHT22;16962;48.646;9.026;2023-12-22T06:16:29;5.50;99.90
30150;DHT22;16962;48.646;9.026;2023-12-22T06:19:42;5.40;99.90
30150;DHT22;16962;48.646;9.026;2023-12-22T06:22:34;5.40;99.90
30150;DHT22;16962;48.646;9.026;2023-12-22T06:29:20;5.40;99.90
30150;DHT22;16962;48.646;9.026;2023-12-22T06:41:30;5.50;99.90
30150;DHT22;16962;48.646;9.026;2023-12-22T06:44:20;5.50;99.90
30150;DHT22;16962;48.646;9.026;2023-12-22T06:47:07;5.50;99.90
30150;DHT22;16962;48.646;9.026;2023-12-22T07:01:45;5.30;99.90
30150;DHT22;16962;48.646;9.026;2023-12-22T07:05:29;5.30;99.90
30150;DHT22;16962;48.646;9.026;2023-12-22T07:08:10;5.40;99.90
30150;DHT22;16962;48.646;9.026;2023-12-22T07:10:58;5.40;99.90
30150;DHT22;16962;48.646;9.026;2023-12-22T07:13:46;5.40;99.90
30150;DHT22;16962;48.646;9.026;2023-12-22T07:16:35;5.40;99.90
30150;DHT22;16962;48.646;9.026;2023-12-22T07:19:25;5.40;99.90
30150;DHT22;16962;48.646;9.026;2023-12-22T07:22:17;5.40;99.90
30150;DHT22;16962;48.646;9.026;2023-12-22T07:25:06;5.40;99.90
30150;DHT22;16962;48.646;9.026;2023-12-22T07:27:55;5.40;99.90
30150;DHT22;16962;48.646;9.026;2023-12-22T07:30:45;5.50;99.90
30150;DHT22;16962;48.646;9.026;2023-12-22T07:33:37;5.40;99.90
30150;DHT22;16962;48.646;9.026;2023-12-22T07:36:27;5.40;99.90
30150;DHT22;16962;48.646;9.026;2023-12-22T07:39:15;5.40;99.90
30150;DHT22;16962;48.646;9.026;2023-12-22T07:42:04;5.40;99.90
30150;DHT22;16962;48.646;9.026;2023-12-22T07:44:55;5.40;99.90
30150;DHT22;16962;48.646;9.026;2023-12-22T07:47:46;5.30;99.90
30150;DHT22;16962;48.646;9.026;2023-12-22T07:50:35;5.30;99.90
30150;DHT22;16962;48.646;9.026;2023-12-22T07:53:25;5.30;99.90
30150;DHT22;16962;48.646;9.026;2023-12-22T07:56:14;5.30;99.90
30150;DHT22;16962;48.646;9.026;2023-12-22T07:59:32;5.30;99.90
30150;DHT22;16962;48.646;9.026;2023-12-22T08:02:56;5.30;99.90
30150;DHT22;16962;48.646;9.026;2023-12-22T08:05:45;5.40;99.90
30150;DHT22;16962;48.646;9.026;2023-12-22T08:08:37;5.60;99.90
30150;DHT22;16962;48.646;9.026;2023-12-22T08:11:28;5.70;99.90
30150;DHT22;16962;48.646;9.026;2023-12-22T08:14:22;5.90;99.90
30150;DHT22;16962;48.646;9.026;2023-12-22T08:17:14;5.90;99.90
30150;DHT22;16962;48.646;9.026;2023-12-22T08:20:04;5.90;99.90
30150;DHT22;16962;48.646;9.026;2023-12-22T08:23:05;5.90;99.90
30150;DHT22;16962;48.646;9.026;2023-12-22T08:25:58;5.90;99.90
30150;DHT22;16962;48.646;9.026;2023-12-22T08:28:50;6.10;99.90
30150;DHT22;16962;48.646;9.026;2023-12-22T08:31:39;6.20;99.90
30150;DHT22;16962;48.646;9.026;2023-12-22T08:34:27;6.20;99.90
30150;DHT22;16962;48.646;9.026;2023-12-22T08:37:18;6.20;99.90
30150;DHT22;16962;48.646;9.026;2023-12-22T08:40:09;6.20;99.90
30150;DHT22;16962;48.646;9.026;2023-12-22T08:42:57;6.30;99.90
30150;DHT22;16962;48.646;9.026;2023-12-22T08:45:47;6.20;99.90
30150;DHT22;16962;48.646;9.026;2023-12-22T08:48:37;6.10;99.90
30150;DHT22;16962;48.646;9.026;2023-12-22T08:51:28;6.10;99.90
30150;DHT22;16962;48.646;9.026;2023-12-22T08:54:16;6.10;99.90
30150;DHT22;16962;48.646;9.026;2023-12-22T08:57:03;6.10;99.90
30150;DHT22;16962;48.646;9.026;2023-12-22T08:59:53;6.10;99.90
30150;DHT22;16962;48.646;9.026;2023-12-22T09:02:44;6.10;99.90
30150;DHT22;16962;48.646;9.026;2023-12-22T09:05:35;6.20;99.90
30150;DHT22;16962;48.646;9.026;2023-12-22T09:08:23;6.20;99.90
30150;DHT22;16962;48.646;9.026;2023-12-22T09:11:16;6.30;99.90
30150;DHT22;16962;48.646;9.026;2023-12-22T09:14:05;6.30;99.90
30150;DHT22;16962;48.646;9.026;2023-12-22T09:17:04;6.30;99.90
30150;DHT22;16962;48.646;9.026;2023-12-22T09:19:59;6.30;99.90
30150;DHT22;16962;48.646;9.026;2023-12-22T09:22:49;6.30;99.90
30150;DHT22;16962;48.646;9.026;2023-12-22T09:25:44;6.40;99.90
30150;DHT22;16962;48.646;9.026;2023-12-22T09:28:35;6.30;99.90
30150;DHT22;16962;48.646;9.026;2023-12-22T09:31:22;6.30;99.90
30150;DHT22;16962;48.646;9.026;2023-12-22T09:34:10;6.30;99.90
30150;DHT22;16962;48.646;9.026;2023-12-22T09:37:04;6.40;99.90
30150;DHT22;16962;48.646;9.026;2023-12-22T09:39:52;6.30;99.90
30150;DHT22;16962;48.646;9.026;2023-12-22T09:42:42;6.40;99.90
30150;DHT22;16962;48.646;9.026;2023-12-22T09:45:32;6.40;99.90
30150;DHT22;16962;48.646;9.026;2023-12-22T09:48:23;6.50;99.90
30150;DHT22;16962;48.646;9.026;2023-12-22T09:51:17;6.50;99.90
30150;DHT22;16962;48.646;9.026;2023-12-22T09:54:08;6.50;99.90
30150;DHT22;16962;48.646;9.026;2023-12-22T09:56:59;6.60;99.90
30150;DHT22;16962;48.646;9.026;2023-12-22T10:00:08;6.60;99.90
30150;DHT22;16962;48.646;9.026;2023-12-22T10:02:57;6.60;99.90
30150;DHT22;16962;48.646;9.026;2023-12-22T10:05:49;6.60;99.90
30150;DHT22;16962;48.646;9.026;2023-12-22T10:08:38;6.60;99.90
30150;DHT22;16962;48.646;9.026;2023-12-22T10:11:28;6.60;99.90
30150;DHT22;16962;48.646;9.026;2023-12-22T10:14:24;6.60;99.90
30150;DHT22;16962;48.646;9.026;2023-12-22T10:17:15;6.70;99.90
30150;DHT22;16962;48.646;9.026;2023-12-22T10:20:08;6.70;99.90
30150;DHT22;16962;48.646;9.026;2023-12-22T10:22:58;6.70;99.90
30150;DHT22;16962;48.646;9.026;2023-12-22T10:25:47;6.70;99.90
30150;DHT22;16962;48.646;9.026;2023-12-22T10:28:41;6.70;99.90
30150;DHT22;16962;48.646;9.026;2023-12-22T10:31:41;6.80;99.90
30150;DHT22;16962;48.646;9.026;2023-12-22T10:34:32;6.80;99.90
30150;DHT22;16962;48.646;9.026;2023-12-22T10:37:25;6.80;99.90
30150;DHT22;16962;48.646;9.026;2023-12-22T10:40:13;6.80;99.90
30150;DHT22;16962;48.646;9.026;2023-12-22T10:43:00;6.70;99.90
30150;DHT22;16962;48.646;9.026;2023-12-22T10:45:48;6.70;99.90
30150;DHT22;16962;48.646;9.026;2023-12-22T10:48:37;6.60;99.90
30150;DHT22;16962;48.646;9.026;2023-12-22T10:51:28;6.50;99.90
30150;DHT22;16962;48.646;9.026;2023-12-22T10:54:22;6.50;99.90
30150;DHT22;16962;48.646;9.026;2023-12-22T10:57:16;6.40;99.90
30150;DHT22;16962;48.646;9.026;2023-12-22T11:00:05;6.30;99.90
30150;DHT22;16962;48.646;9.026;2023-12-22T11:03:02;6.30;99.90
30150;DHT22;16962;48.646;9.026;2023-12-22T11:05:54;6.30;99.90
30150;DHT22;16962;48.646;9.026;2023-12-22T11:08:43;6.20;99.90
30150;DHT22;16962;48.646;9.026;2023-12-22T11:11:35;6.20;99.90
30150;DHT22;16962;48.646;9.026;2023-12-22T11:14:24;6.10;99.90
30150;DHT22;16962;48.646;9.026;2023-12-22T11:17:14;6.10;99.90
30150;DHT22;16962;48.646;9.026;2023-12-22T11:20:03;6.10;99.90
30150;DHT22;16962;48.646;9.026;2023-12-22T11:22:53;6.00;99.90
30150;DHT22;16962;48.646;9.026;2023-12-22T11:25:45;6.00;99.90
30150;DHT22;16962;48.646;9.026;2023-12-22T11:28:40;6.00;99.90
30150;DHT22;16962;48.646;9.026;2023-12-22T11:31:31;5.90;99.90
30150;DHT22;16962;48.646;9.026;2023-12-22T11:34:20;5.90;99.90
30150;DHT22;16962;48.646;9.026;2023-12-22T11:37:12;5.90;99.90
30150;DHT22;16962;48.646;9.026;2023-12-22T11:40:07;5.90;99.90
30150;DHT22;16962;48.646;9.026;2023-12-22T11:43:00;5.90;99.90
30150;DHT22;16962;48.646;9.026;2023-12-22T11:45:50;5.90;99.90
30150;DHT22;16962;48.646;9.026;2023-12-22T11:48:51;5.90;99.90
30150;DHT22;16962;48.646;9.026;2023-12-22T11:51:50;5.90;99.90
30150;DHT22;16962;48.646;9.026;2023-12-22T11:54:51;5.80;99.90
30150;DHT22;16962;48.646;9.026;2023-12-22T11:57:39;5.90;99.90
30150;DHT22;16962;48.646;9.026;2023-12-22T12:03:17;5.90;99.90
30150;DHT22;16962;48.646;9.026;2023-12-22T12:09:04;5.90;99.90
30150;DHT22;16962;48.646;9.026;2023-12-22T12:14:41;5.90;99.90
30150;DHT22;16962;48.646;9.026;2023-12-22T12:17:31;5.90;99.90
30150;DHT22;16962;48.646;9.026;2023-12-22T12:20:21;5.80;99.90
30150;DHT22;16962;48.646;9.026;2023-12-22T12:23:12;5.80;99.90
30150;DHT22;16962;48.646;9.026;2023-12-22T12:26:00;5.80;99.90
30150;DHT22;16962;48.646;9.026;2023-12-22T12:28:47;5.80;99.90
30150;DHT22;16962;48.646;9.026;2023-12-22T12:31:37;5.90;99.90
30150;DHT22;16962;48.646;9.026;2023-12-22T12:34:25;5.90;99.90
30150;DHT22;16962;48.646;9.026;2023-12-22T12:37:13;5.90;99.90
30150;DHT22;16962;48.646;9.026;2023-12-22T12:40:08;6.00;99.90
30150;DHT22;16962;48.646;9.026;2023-12-22T12:42:59;6.00;99.90
30150;DHT22;16962;48.646;9.026;2023-12-22T12:45:48;6.10;99.90
30150;DHT22;16962;48.646;9.026;2023-12-22T12:48:36;6.20;99.90
30150;DHT22;16962;48.646;9.026;2023-12-22T12:51:24;6.30;99.90
30150;DHT22;16962;48.646;9.026;2023-12-22T12:54:12;6.40;99.90
30150;DHT22;16962;48.646;9.026;2023-12-22T12:57:03;6.40;99.90
30150;DHT22;16962;48.646;9.026;2023-12-22T12:59:53;6.50;99.90
30150;DHT22;16962;48.646;9.026;2023-12-22T13:02:44;6.50;99.90
30150;DHT22;16962;48.646;9.026;2023-12-22T13:05:33;6.60;99.90
30150;DHT22;16962;48.646;9.026;2023-12-22T13:08:25;6.70;99.90
30150;DHT22;16962;48.646;9.026;2023-12-22T13:11:32;6.70;99.90
30150;DHT22;16962;48.646;9.026;2023-12-22T13:14:24;6.80;99.90
30150;DHT22;16962;48.646;9.026;2023-12-22T13:17:15;6.80;99.90
30150;DHT22;16962;48.646;9.026;2023-12-22T13:20:07;6.90;99.90
30150;DHT22;16962;48.646;9.026;2023-12-22T13:22:57;6.90;99.90
30150;DHT22;16962;48.646;9.026;2023-12-22T13:25:47;6.90;99.90
30150;DHT22;16962;48.646;9.026;2023-12-22T13:28:36;6.90;99.90
30150;DHT22;16962;48.646;9.026;2023-12-22T13:31:29;6.90;99.90
30150;DHT22;16962;48.646;9.026;2023-12-22T13:34:21;7.00;99.90
30150;DHT22;16962;48.646;9.026;2023-12-22T13:37:13;7.00;99.90
30150;DHT22;16962;48.646;9.026;2023-12-22T13:40:07;7.00;99.90
30150;DHT22;16962;48.646;9.026;2023-12-22T13:43:00;7.00;99.90
30150;DHT22;16962;48.646;9.026;2023-12-22T13:45:52;7.00;99.90
30150;DHT22;16962;48.646;9.026;2023-12-22T13:48:41;7.00;99.90
30150;DHT22;16962;48.646;9.026;2023-12-22T13:58:22;7.10;99.90
30150;DHT22;16962;48.646;9.026;2023-12-22T14:01:16;7.10;99.90
30150;DHT22;16962;48.646;9.026;2023-12-22T14:04:04;7.10;99.90
30150;DHT22;16962;48.646;9.026;2023-12-22T14:10:58;7.20;99.90
30150;DHT22;16962;48.646;9.026;2023-12-22T14:42:11;7.60;99.90
30150;DHT22;16962;48.646;9.026;2023-12-22T14:44:58;7.60;99.90
30150;DHT22;16962;48.646;9.026;2023-12-22T14:47:49;7.60;99.90
30150;DHT22;16962;48.646;9.026;2023-12-22T14:50:41;7.60;99.90
30150;DHT22;16962;48.646;9.026;2023-12-22T14:53:30;7.70;99.90
30150;DHT22;16962;48.646;9.026;2023-12-22T14:56:19;7.70;99.90
30150;DHT22;16962;48.646;9.026;2023-12-22T14:59:11;7.70;99.90
30150;DHT22;16962;48.646;9.026;2023-12-22T15:01:59;7.80;99.90
30150;DHT22;16962;48.646;9.026;2023-12-22T15:04:53;7.70;99.90
30150;DHT22;16962;48.646;9.026;2023-12-22T15:07:44;7.80;99.90
30150;DHT22;16962;48.646;9.026;2023-12-22T15:10:33;7.80;99.90
30150;DHT22;16962;48.646;9.026;2023-12-22T15:13:24;7.80;99.90
30150;DHT22;16962;48.646;9.026;2023-12-22T15:16:17;7.80;99.90
30150;DHT22;16962;48.646;9.026;2023-12-22T15:19:07;7.70;99.90
30150;DHT22;16962;48.646;9.026;2023-12-22T15:21:54;7.70;99.90
30150;DHT22;16962;48.646;9.026;2023-12-22T15:24:57;7.70;99.90
30150;DHT22;16962;48.646;9.026;2023-12-22T15:52:28;7.70;99.90
30150;DHT22;16962;48.646;9.026;2023-12-22T15:55:21;7.60;99.90
30150;DHT22;16962;48.646;9.026;2023-12-22T15:58:12;7.60;99.90
30150;DHT22;16962;48.646;9.026;2023-12-22T16:01:03;7.60;99.90
30150;DHT22;16962;48.646;9.026;2023-12-22T16:03:52;7.60;99.90
30150;DHT22;16962;48.646;9.026;2023-12-22T16:06:40;7.60;99.90
30150;DHT22;16962;48.646;9.026;2023-12-22T16:09:28;7.60;99.90
30150;DHT22;16962;48.646;9.026;2023-12-22T16:12:23;7.60;99.90
30150;DHT22;16962;48.646;9.026;2023-12-22T16:15:15;7.70;99.90
30150;DHT22;16962;48.646;9.026;2023-12-22T16:18:03;7.70;99.90
30150;DHT22;16962;48.646;9.026;2023-12-22T16:34:21;7.60;99.90
30150;DHT22;16962;48.646;9.026;2023-12-22T16:39:50;7.60;99.90
30150;DHT22;16962;48.646;9.026;2023-12-22T16:42:36;7.70;99.90
30150;DHT22;16962;48.646;9.026;2023-12-22T16:45:46;7.70;99.90
30150;DHT22;16962;48.646;9.026;2023-12-22T16:48:31;7.80;99.90
30150;DHT22;16962;48.646;9.026;2023-12-22T16:51:17;7.80;99.90
30150;DHT22;16962;48.646;9.026;2023-12-22T16:54:03;7.80;99.90
30150;DHT22;16962;48.646;9.026;2023-12-22T16:56:49;7.80;99.90
30150;DHT22;16962;48.646;9.026;2023-12-22T16:59:36;7.80;99.90
30150;DHT22;16962;48.646;9.026;2023-12-22T17:02:22;7.70;99.90
30150;DHT22;16962;48.646;9.026;2023-12-22T17:05:18;7.70;99.90
